sensor_id;sensor_type;location;lat;lon;timestamp;pressure;altitude;pressure_sealevel;temperature;humidity
39487;BME280;25173;50.430;18.926;2023-03-21T00:02:43;98184.66;;;12.56;71.64
39487;BME280;25173;50.430;18.926;2023-03-21T00:05:44;98186.94;;;12.43;71.65
39487;BME280;25173;50.430;18.926;2023-03-21T00:08:51;98179.75;;;12.19;72.19
39487;BME280;25173;50.430;18.926;2023-03-21T00:11:51;98173.72;;;11.83;73.36
39487;BME280;25173;50.430;18.926;2023-03-21T00:14:52;98179.56;;;11.51;74.44
39487;BME280;25173;50.430;18.926;2023-03-21T00:17:54;98173.72;;;11.18;75.73
39487;BME280;25173;50.430;18.926;2023-03-21T00:21:04;98174.88;;;10.87;77.50
39487;BME280;25173;50.430;18.926;2023-03-21T00:24:05;98172.72;;;10.69;78.42
39487;BME280;25173;50.430;18.926;2023-03-21T00:27:07;98172.75;;;10.59;79.58
39487;BME280;25173;50.430;18.926;2023-03-21T00:30:10;98174.91;;;10.46;79.93
39487;BME280;25173;50.430;18.926;2023-03-21T00:33:11;98171.94;;;10.43;80.33
39487;BME280;25173;50.430;18.926;2023-03-21T00:36:13;98168.41;;;10.42;80.08
39487;BME280;25173;50.430;18.926;2023-03-21T00:39:15;98170.56;;;10.40;80.39
39487;BME280;25173;50.430;18.926;2023-03-21T00:42:15;98171.91;;;10.38;81.06
39487;BME280;25173;50.430;18.926;2023-03-21T00:45:16;98170.28;;;10.32;81.83
39487;BME280;25173;50.430;18.926;2023-03-21T00:48:18;98164.56;;;10.23;82.13
39487;BME280;25173;50.430;18.926;2023-03-21T00:51:21;98164.31;;;10.20;82.50
39487;BME280;25173;50.430;18.926;2023-03-21T00:54:25;98165.13;;;10.20;82.33
39487;BME280;25173;50.430;18.926;2023-03-21T00:57:26;98160.50;;;10.21;82.58
39487;BME280;25173;50.430;18.926;2023-03-21T01:00:27;98162.66;;;10.24;82.64
39487;BME280;25173;50.430;18.926;2023-03-21T01:03:27;98162.94;;;10.27;82.54
39487;BME280;25173;50.430;18.926;2023-03-21T01:06:28;98167.03;;;10.35;82.37
39487;BME280;25173;50.430;18.926;2023-03-21T01:09:29;98157.22;;;10.39;82.37
39487;BME280;25173;50.430;18.926;2023-03-21T01:12:31;98162.41;;;10.40;82.22
39487;BME280;25173;50.430;18.926;2023-03-21T01:15:32;98154.50;;;10.44;82.37
39487;BME280;25173;50.430;18.926;2023-03-21T01:18:36;98147.69;;;10.52;82.46
39487;BME280;25173;50.430;18.926;2023-03-21T01:21:37;98150.94;;;10.64;82.43
39487;BME280;25173;50.430;18.926;2023-03-21T01:24:38;98154.47;;;10.74;82.39
39487;BME280;25173;50.430;18.926;2023-03-21T01:27:38;98147.09;;;10.80;82.40
39487;BME280;25173;50.430;18.926;2023-03-21T01:30:44;98150.88;;;10.94;82.08
39487;BME280;25173;50.430;18.926;2023-03-21T01:33:45;98150.84;;;10.99;82.00
39487;BME280;25173;50.430;18.926;2023-03-21T01:36:46;98151.69;;;11.00;82.02
39487;BME280;25173;50.430;18.926;2023-03-21T01:39:51;98151.97;;;11.03;82.16
39487;BME280;25173;50.430;18.926;2023-03-21T01:42:52;98135.59;;;11.03;82.19
39487;BME280;25173;50.430;18.926;2023-03-21T01:46:20;98142.41;;;11.11;82.23
39487;BME280;25173;50.430;18.926;2023-03-21T01:49:40;98141.28;;;11.12;82.24
39487;BME280;25173;50.430;18.926;2023-03-21T01:52:51;98146.97;;;11.20;82.13
39487;BME280;25173;50.430;18.926;2023-03-21T01:56:03;98141.25;;;11.22;81.82
39487;BME280;25173;50.430;18.926;2023-03-21T01:59:24;98136.06;;;11.20;81.77
39487;BME280;25173;50.430;18.926;2023-03-21T02:02:47;98138.25;;;11.23;81.97
39487;BME280;25173;50.430;18.926;2023-03-21T02:06:12;98141.78;;;11.24;83.21
39487;BME280;25173;50.430;18.926;2023-03-21T02:09:21;98139.63;;;11.16;82.18
39487;BME280;25173;50.430;18.926;2023-03-21T02:12:25;98138.28;;;11.13;81.93
39487;BME280;25173;50.430;18.926;2023-03-21T02:15:26;98133.09;;;11.17;81.84
39487;BME280;25173;50.430;18.926;2023-03-21T02:19:18;98139.63;;;11.16;81.46
39487;BME280;25173;50.430;18.926;2023-03-21T02:42:35;98148.63;;;11.16;81.47
39487;BME280;25173;50.430;18.926;2023-03-21T02:48:47;98139.63;;;11.16;81.02
39487;BME280;25173;50.430;18.926;2023-03-21T02:51:52;98140.44;;;11.21;81.19
39487;BME280;25173;50.430;18.926;2023-03-21T02:54:53;98137.44;;;11.23;80.57
39487;BME280;25173;50.430;18.926;2023-03-21T02:57:59;98139.34;;;11.22;80.54
39487;BME280;25173;50.430;18.926;2023-03-21T03:01:02;98129.78;;;11.20;80.36
39487;BME280;25173;50.430;18.926;2023-03-21T03:04:18;98133.88;;;11.22;80.17
39487;BME280;25173;50.430;18.926;2023-03-21T03:07:44;98123.53;;;11.24;79.97
39487;BME280;25173;50.430;18.926;2023-03-21T03:14:27;98123.50;;;11.29;79.78
39487;BME280;25173;50.430;18.926;2023-03-21T03:17:45;98126.75;;;11.32;79.53
39487;BME280;25173;50.430;18.926;2023-03-21T03:21:04;98127.28;;;11.39;79.61
39487;BME280;25173;50.430;18.926;2023-03-21T03:24:21;98124.50;;;11.44;79.42
39487;BME280;25173;50.430;18.926;2023-03-21T03:27:25;98132.72;;;11.39;79.63
39487;BME280;25173;50.430;18.926;2023-03-21T03:30:28;98126.50;;;11.33;79.39
39487;BME280;25173;50.430;18.926;2023-03-21T03:33:29;98127.00;;;11.35;79.21
39487;BME280;25173;50.430;18.926;2023-03-21T03:36:34;98134.88;;;11.42;79.27
39487;BME280;25173;50.430;18.926;2023-03-21T03:39:48;98133.78;;;11.43;79.12
39487;BME280;25173;50.430;18.926;2023-03-21T03:42:52;98124.78;;;11.42;79.16
39487;BME280;25173;50.430;18.926;2023-03-21T03:46:10;98132.97;;;11.42;79.07
39487;BME280;25173;50.430;18.926;2023-03-21T03:49:16;98132.16;;;11.47;79.45
39487;BME280;25173;50.430;18.926;2023-03-21T03:52:28;98128.31;;;11.48;79.11
39487;BME280;25173;50.430;18.926;2023-03-21T03:55:43;98129.69;;;11.45;79.20
39487;BME280;25173;50.430;18.926;2023-03-21T03:58:48;98127.78;;;11.46;79.17
39487;BME280;25173;50.430;18.926;2023-03-21T04:01:52;98127.22;;;11.49;79.24
39487;BME280;25173;50.430;18.926;2023-03-21T04:04:53;98129.34;;;11.57;79.29
39487;BME280;25173;50.430;18.926;2023-03-21T04:07:57;98131.53;;;11.60;79.08
39487;BME280;25173;50.430;18.926;2023-03-21T04:11:10;98135.31;;;11.64;79.15
39487;BME280;25173;50.430;18.926;2023-03-21T04:14:13;98126.84;;;11.65;78.98
39487;BME280;25173;50.430;18.926;2023-03-21T04:17:15;98124.69;;;11.62;78.73
39487;BME280;25173;50.430;18.926;2023-03-21T04:20:16;98130.13;;;11.67;79.28
39487;BME280;25173;50.430;18.926;2023-03-21T04:23:17;98124.91;;;11.76;78.99
39487;BME280;25173;50.430;18.926;2023-03-21T04:26:21;98130.88;;;11.78;78.79
39487;BME280;25173;50.430;18.926;2023-03-21T04:29:45;98118.38;;;11.77;78.71
39487;BME280;25173;50.430;18.926;2023-03-21T04:33:17;98123.78;;;11.82;78.82
39487;BME280;25173;50.430;18.926;2023-03-21T04:36:27;98115.03;;;11.85;78.77
39487;BME280;25173;50.430;18.926;2023-03-21T04:39:33;98128.09;;;11.88;78.68
39487;BME280;25173;50.430;18.926;2023-03-21T04:42:34;98121.28;;;11.91;78.68
39487;BME280;25173;50.430;18.926;2023-03-21T04:45:35;98119.09;;;11.88;78.16
39487;BME280;25173;50.430;18.926;2023-03-21T04:48:35;98117.72;;;11.90;78.52
39487;BME280;25173;50.430;18.926;2023-03-21T04:51:37;98119.03;;;11.98;78.52
39487;BME280;25173;50.430;18.926;2023-03-21T04:54:43;98119.25;;;12.07;78.68
39487;BME280;25173;50.430;18.926;2023-03-21T04:57:43;98123.06;;;12.05;77.81
39487;BME280;25173;50.430;18.926;2023-03-21T05:00:44;98124.72;;;12.01;78.10
39487;BME280;25173;50.430;18.926;2023-03-21T05:03:44;98129.38;;;12.01;78.25
39487;BME280;25173;50.430;18.926;2023-03-21T05:06:45;98127.44;;;12.07;78.36
39487;BME280;25173;50.430;18.926;2023-03-21T05:09:46;98126.34;;;12.08;78.12
39487;BME280;25173;50.430;18.926;2023-03-21T05:12:47;98125.00;;;12.05;78.34
39487;BME280;25173;50.430;18.926;2023-03-21T05:15:47;98118.94;;;12.08;78.33
39487;BME280;25173;50.430;18.926;2023-03-21T05:18:48;98125.19;;;12.14;78.10
39487;BME280;25173;50.430;18.926;2023-03-21T05:21:52;98128.16;;;12.17;78.20
39487;BME280;25173;50.430;18.926;2023-03-21T05:24:56;98128.16;;;12.17;77.92
39487;BME280;25173;50.430;18.926;2023-03-21T05:28:25;98127.88;;;12.19;78.09
39487;BME280;25173;50.430;18.926;2023-03-21T05:31:32;98131.09;;;12.26;78.03
39487;BME280;25173;50.430;18.926;2023-03-21T05:34:40;98129.72;;;12.28;77.84
39487;BME280;25173;50.430;18.926;2023-03-21T05:37:40;98129.47;;;12.25;77.80
39487;BME280;25173;50.430;18.926;2023-03-21T05:40:45;98133.78;;;12.31;77.97
39487;BME280;25173;50.430;18.926;2023-03-21T05:43:46;98139.78;;;12.33;77.85
39487;BME280;25173;50.430;18.926;2023-03-21T05:46:49;98144.69;;;12.31;77.75
39487;BME280;25173;50.430;18.926;2023-03-21T05:49:51;98148.56;;;12.25;77.44
39487;BME280;25173;50.430;18.926;2023-03-21T05:52:52;98145.44;;;12.08;77.46
39487;BME280;25173;50.430;18.926;2023-03-21T05:55:53;98152.56;;;12.03;77.53
39487;BME280;25173;50.430;18.926;2023-03-21T05:59:12;98149.38;;;11.91;77.79
39487;BME280;25173;50.430;18.926;2023-03-21T06:02:17;98153.25;;;11.80;77.60
39487;BME280;25173;50.430;18.926;2023-03-21T06:05:23;98152.44;;;11.80;78.07
39487;BME280;25173;50.430;18.926;2023-03-21T06:08:24;98159.00;;;11.79;78.13
39487;BME280;25173;50.430;18.926;2023-03-21T06:11:28;98150.25;;;11.82;78.33
39487;BME280;25173;50.430;18.926;2023-03-21T06:14:52;98151.56;;;11.89;78.28
39487;BME280;25173;50.430;18.926;2023-03-21T06:18:00;98158.56;;;12.05;78.66
39487;BME280;25173;50.430;18.926;2023-03-21T06:21:01;98168.88;;;12.14;77.99
39487;BME280;25173;50.430;18.926;2023-03-21T06:24:02;98168.88;;;12.14;78.05
39487;BME280;25173;50.430;18.926;2023-03-21T06:27:03;98165.06;;;12.10;77.88
39487;BME280;25173;50.430;18.926;2023-03-21T06:30:14;98165.66;;;12.07;77.95
39487;BME280;25173;50.430;18.926;2023-03-21T06:33:27;98175.50;;;12.02;78.04
39487;BME280;25173;50.430;18.926;2023-03-21T06:36:28;98173.84;;;12.01;77.95
39487;BME280;25173;50.430;18.926;2023-03-21T06:39:29;98176.59;;;12.01;77.93
39487;BME280;25173;50.430;18.926;2023-03-21T06:42:30;98179.63;;;11.95;77.65
39487;BME280;25173;50.430;18.926;2023-03-21T06:45:39;98172.84;;;11.87;77.75
39487;BME280;25173;50.430;18.926;2023-03-21T06:48:44;98179.13;;;11.88;77.96
39487;BME280;25173;50.430;18.926;2023-03-21T06:51:45;98189.22;;;11.87;78.03
39487;BME280;25173;50.430;18.926;2023-03-21T06:54:51;98178.66;;;11.76;77.97
39487;BME280;25173;50.430;18.926;2023-03-21T06:57:52;98186.03;;;11.75;78.13
39487;BME280;25173;50.430;18.926;2023-03-21T07:00:57;98184.94;;;11.76;78.48
39487;BME280;25173;50.430;18.926;2023-03-21T07:03:58;98181.09;;;11.82;78.35
39487;BME280;25173;50.430;18.926;2023-03-21T07:07:01;98195.75;;;11.96;78.41
39487;BME280;25173;50.430;18.926;2023-03-21T07:10:03;98186.50;;;11.92;77.71
39487;BME280;25173;50.430;18.926;2023-03-21T07:13:10;98189.72;;;11.94;78.03
39487;BME280;25173;50.430;18.926;2023-03-21T07:16:19;98192.38;;;12.10;78.19
39487;BME280;25173;50.430;18.926;2023-03-21T07:19:21;98195.69;;;12.07;77.25
39487;BME280;25173;50.430;18.926;2023-03-21T07:22:22;98193.19;;;12.10;77.66
39487;BME280;25173;50.430;18.926;2023-03-21T07:25:22;98198.59;;;12.20;77.68
39487;BME280;25173;50.430;18.926;2023-03-21T07:28:23;98198.50;;;12.30;77.55
39487;BME280;25173;50.430;18.926;2023-03-21T07:31:24;98198.97;;;12.42;77.61
39487;BME280;25173;50.430;18.926;2023-03-21T07:34:26;98195.91;;;12.49;77.09
39487;BME280;25173;50.430;18.926;2023-03-21T07:37:31;98193.06;;;12.64;77.66
39487;BME280;25173;50.430;18.926;2023-03-21T07:40:32;98197.84;;;12.77;76.92
39487;BME280;25173;50.430;18.926;2023-03-21T07:43:33;98200.91;;;12.71;76.01
39487;BME280;25173;50.430;18.926;2023-03-21T07:46:34;98198.25;;;12.66;76.38
39487;BME280;25173;50.430;18.926;2023-03-21T07:49:35;98204.41;;;12.76;76.55
39487;BME280;25173;50.430;18.926;2023-03-21T07:52:37;98199.91;;;12.91;76.35
39487;BME280;25173;50.430;18.926;2023-03-21T07:55:37;98216.97;;;13.06;75.98
39487;BME280;25173;50.430;18.926;2023-03-21T07:58:38;98216.31;;;13.19;75.49
39487;BME280;25173;50.430;18.926;2023-03-21T08:01:39;98219.13;;;13.14;74.09
39487;BME280;25173;50.430;18.926;2023-03-21T08:04:39;98211.75;;;13.10;74.51
39487;BME280;25173;50.430;18.926;2023-03-21T08:07:40;98211.97;;;13.18;74.66
39487;BME280;25173;50.430;18.926;2023-03-21T08:10:44;98219.06;;;13.19;74.19
39487;BME280;25173;50.430;18.926;2023-03-21T08:13:44;98217.22;;;13.10;73.15
39487;BME280;25173;50.430;18.926;2023-03-21T08:16:45;98214.59;;;13.00;73.64
39487;BME280;25173;50.430;18.926;2023-03-21T08:19:46;98218.53;;;12.89;73.23
39487;BME280;25173;50.430;18.926;2023-03-21T08:22:47;98219.22;;;12.70;72.95
39487;BME280;25173;50.430;18.926;2023-03-21T08:25:52;98223.03;;;12.74;73.56
39487;BME280;25173;50.430;18.926;2023-03-21T08:28:53;98219.63;;;12.88;73.54
39487;BME280;25173;50.430;18.926;2023-03-21T08:31:54;98219.28;;;12.94;72.98
39487;BME280;25173;50.430;18.926;2023-03-21T08:34:57;98222.31;;;12.93;72.40
39487;BME280;25173;50.430;18.926;2023-03-21T08:38:01;98220.13;;;12.95;72.57
39487;BME280;25173;50.430;18.926;2023-03-21T08:41:02;98232.09;;;12.99;72.45
39487;BME280;25173;50.430;18.926;2023-03-21T08:44:04;98229.91;;;13.01;72.20
39487;BME280;25173;50.430;18.926;2023-03-21T08:47:05;98224.41;;;13.01;71.75
39487;BME280;25173;50.430;18.926;2023-03-21T08:50:08;98233.63;;;13.10;71.67
39487;BME280;25173;50.430;18.926;2023-03-21T08:53:10;98231.69;;;13.15;71.47
39487;BME280;25173;50.430;18.926;2023-03-21T08:56:10;98241.72;;;13.25;71.15
39487;BME280;25173;50.430;18.926;2023-03-21T08:59:11;98237.63;;;13.23;70.80
39487;BME280;25173;50.430;18.926;2023-03-21T09:02:13;98240.28;;;13.33;71.02
39487;BME280;25173;50.430;18.926;2023-03-21T09:05:15;98243.75;;;13.38;69.33
39487;BME280;25173;50.430;18.926;2023-03-21T09:08:16;98246.78;;;13.37;69.29
39487;BME280;25173;50.430;18.926;2023-03-21T09:11:17;98242.69;;;13.34;69.21
39487;BME280;25173;50.430;18.926;2023-03-21T09:14:17;98250.81;;;13.44;69.56
39487;BME280;25173;50.430;18.926;2023-03-21T09:17:18;98242.69;;;13.34;68.45
39487;BME280;25173;50.430;18.926;2023-03-21T09:20:21;98248.75;;;13.31;68.77
39487;BME280;25173;50.430;18.926;2023-03-21T09:23:25;98242.69;;;13.34;69.20
39487;BME280;25173;50.430;18.926;2023-03-21T09:26:26;98261.22;;;13.42;69.41
39487;BME280;25173;50.430;18.926;2023-03-21T09:29:28;98262.56;;;13.45;68.61
39487;BME280;25173;50.430;18.926;2023-03-21T09:32:32;98259.09;;;13.34;68.57
39487;BME280;25173;50.430;18.926;2023-03-21T09:35:33;98264.91;;;13.33;68.54
39487;BME280;25173;50.430;18.926;2023-03-21T09:38:34;98262.31;;;13.41;68.61
39487;BME280;25173;50.430;18.926;2023-03-21T09:41:39;98269.94;;;13.44;68.61
39487;BME280;25173;50.430;18.926;2023-03-21T09:45:04;98262.66;;;13.35;67.16
39487;BME280;25173;50.430;18.926;2023-03-21T09:48:16;98271.19;;;13.33;67.62
39487;BME280;25173;50.430;18.926;2023-03-21T09:51:20;98267.97;;;13.26;67.78
39487;BME280;25173;50.430;18.926;2023-03-21T09:54:25;98273.00;;;13.14;67.17
39487;BME280;25173;50.430;18.926;2023-03-21T09:57:34;98265.38;;;13.06;67.51
39487;BME280;25173;50.430;18.926;2023-03-21T10:00:39;98264.00;;;13.08;68.05
39487;BME280;25173;50.430;18.926;2023-03-21T10:03:41;98272.47;;;13.07;68.23
39487;BME280;25173;50.430;18.926;2023-03-21T10:06:44;98267.44;;;12.90;68.74
39487;BME280;25173;50.430;18.926;2023-03-21T10:09:47;98259.94;;;12.72;69.33
39487;BME280;25173;50.430;18.926;2023-03-21T10:12:52;98264.88;;;12.70;69.95
39487;BME280;25173;50.430;18.926;2023-03-21T10:15:56;98266.75;;;12.74;70.26
39487;BME280;25173;50.430;18.926;2023-03-21T10:18:59;98268.97;;;12.72;70.09
39487;BME280;25173;50.430;18.926;2023-03-21T10:22:02;98267.44;;;12.56;69.52
39487;BME280;25173;50.430;18.926;2023-03-21T10:25:03;98265.34;;;12.43;70.18
39487;BME280;25173;50.430;18.926;2023-03-21T10:28:06;98271.94;;;12.37;70.45
39487;BME280;25173;50.430;18.926;2023-03-21T10:31:10;98269.84;;;12.19;70.31
39487;BME280;25173;50.430;18.926;2023-03-21T10:34:18;98264.72;;;12.12;71.03
39487;BME280;25173;50.430;18.926;2023-03-21T10:37:20;98267.44;;;12.12;71.06
39487;BME280;25173;50.430;18.926;2023-03-21T10:40:21;98277.00;;;12.15;71.62
39487;BME280;25173;50.430;18.926;2023-03-21T10:46:26;98262.06;;;12.41;71.55
39487;BME280;25173;50.430;18.926;2023-03-21T10:49:29;98263.66;;;12.52;71.71
39487;BME280;25173;50.430;18.926;2023-03-21T10:52:31;98262.47;;;12.63;71.62
39487;BME280;25173;50.430;18.926;2023-03-21T10:55:33;98263.69;;;12.81;71.65
39487;BME280;25173;50.430;18.926;2023-03-21T10:58:36;98262.78;;;12.91;70.99
39487;BME280;25173;50.430;18.926;2023-03-21T11:01:40;98270.97;;;12.96;70.44
39487;BME280;25173;50.430;18.926;2023-03-21T11:04:42;98268.44;;;12.99;70.20
39487;BME280;25173;50.430;18.926;2023-03-21T11:07:44;98266.88;;;12.93;69.07
39487;BME280;25173;50.430;18.926;2023-03-21T11:11:24;98262.56;;;12.87;68.47
39487;BME280;25173;50.430;18.926;2023-03-21T11:14:38;98269.13;;;12.86;68.59
39487;BME280;25173;50.430;18.926;2023-03-21T11:17:39;98269.13;;;12.86;68.63
39487;BME280;25173;50.430;18.926;2023-03-21T11:21:03;98269.75;;;13.07;68.32
39487;BME280;25173;50.430;18.926;2023-03-21T11:24:05;98268.13;;;13.35;68.55
39487;BME280;25173;50.430;18.926;2023-03-21T11:27:06;98261.28;;;13.61;68.14
39487;BME280;25173;50.430;18.926;2023-03-21T11:30:19;98263.97;;;13.90;67.44
39487;BME280;25173;50.430;18.926;2023-03-21T11:33:30;98271.28;;;13.94;66.82
39487;BME280;25173;50.430;18.926;2023-03-21T11:36:34;98263.03;;;13.99;65.80
39487;BME280;25173;50.430;18.926;2023-03-21T11:39:38;98255.22;;;13.88;65.48
39487;BME280;25173;50.430;18.926;2023-03-21T11:42:42;98257.84;;;13.98;65.92
39487;BME280;25173;50.430;18.926;2023-03-21T11:46:18;98259.72;;;14.21;64.72
39487;BME280;25173;50.430;18.926;2023-03-21T11:49:22;98257.00;;;14.40;64.79
39487;BME280;25173;50.430;18.926;2023-03-21T11:52:37;98249.94;;;14.34;63.31
39487;BME280;25173;50.430;18.926;2023-03-21T11:55:52;98254.59;;;14.15;63.37
39487;BME280;25173;50.430;18.926;2023-03-21T12:02:44;98244.63;;;13.81;64.01
39487;BME280;25173;50.430;18.926;2023-03-21T12:06:00;98255.56;;;13.57;64.50
39487;BME280;25173;50.430;18.926;2023-03-21T12:15:49;98240.50;;;13.60;64.17
39487;BME280;25173;50.430;18.926;2023-03-21T12:19:36;98241.84;;;13.63;63.72
39487;BME280;25173;50.430;18.926;2023-03-21T12:32:39;98234.06;;;12.93;66.51
39487;BME280;25173;50.430;18.926;2023-03-21T12:39:27;98230.72;;;12.67;67.12
39487;BME280;25173;50.430;18.926;2023-03-21T12:42:45;98229.50;;;12.83;67.49
39487;BME280;25173;50.430;18.926;2023-03-21T12:45:52;98217.31;;;13.00;67.54
39487;BME280;25173;50.430;18.926;2023-03-21T12:49:11;98223.97;;;13.23;68.20
39487;BME280;25173;50.430;18.926;2023-03-21T12:52:32;98220.78;;;13.63;67.58
39487;BME280;25173;50.430;18.926;2023-03-21T12:55:34;98216.75;;;13.98;67.03
39487;BME280;25173;50.430;18.926;2023-03-21T12:58:43;98214.25;;;14.20;65.23
39487;BME280;25173;50.430;18.926;2023-03-21T13:01:46;98209.13;;;14.32;64.74
39487;BME280;25173;50.430;18.926;2023-03-21T13:05:26;98206.28;;;14.43;63.13
39487;BME280;25173;50.430;18.926;2023-03-21T13:11:43;98200.50;;;14.76;63.73
39487;BME280;25173;50.430;18.926;2023-03-21T13:15:13;98199.44;;;15.05;62.48
39487;BME280;25173;50.430;18.926;2023-03-21T13:22:02;98193.09;;;15.64;60.73
39487;BME280;25173;50.430;18.926;2023-03-21T13:25:17;98192.91;;;15.74;61.13
39487;BME280;25173;50.430;18.926;2023-03-21T13:28:20;98195.72;;;15.97;60.60
39487;BME280;25173;50.430;18.926;2023-03-21T13:31:25;98200.59;;;16.00;59.46
39487;BME280;25173;50.430;18.926;2023-03-21T13:34:27;98188.72;;;15.90;59.74
39487;BME280;25173;50.430;18.926;2023-03-21T13:37:31;98197.34;;;15.98;59.71
39487;BME280;25173;50.430;18.926;2023-03-21T13:40:34;98193.09;;;15.91;56.06
39487;BME280;25173;50.430;18.926;2023-03-21T13:43:43;98193.09;;;15.91;59.39
39487;BME280;25173;50.430;18.926;2023-03-21T13:46:53;98187.91;;;15.90;59.06
39487;BME280;25173;50.430;18.926;2023-03-21T13:50:35;98195.31;;;15.89;56.60
39487;BME280;25173;50.430;18.926;2023-03-21T13:53:38;98190.84;;;15.80;58.72
39487;BME280;25173;50.430;18.926;2023-03-21T13:59:48;98196.16;;;15.76;58.99
39487;BME280;25173;50.430;18.926;2023-03-21T14:02:56;98186.97;;;15.95;58.41
39487;BME280;25173;50.430;18.926;2023-03-21T14:05:57;98174.34;;;16.07;58.59
39487;BME280;25173;50.430;18.926;2023-03-21T14:08:58;98175.16;;;15.94;57.06
39487;BME280;25173;50.430;18.926;2023-03-21T14:12:00;98180.16;;;15.78;57.34
39487;BME280;25173;50.430;18.926;2023-03-21T14:15:17;98180.69;;;15.67;57.38
39487;BME280;25173;50.430;18.926;2023-03-21T14:18:20;98183.63;;;15.43;57.24
39487;BME280;25173;50.430;18.926;2023-03-21T14:21:25;98169.78;;;15.21;57.91
39487;BME280;25173;50.430;18.926;2023-03-21T14:24:25;98178.31;;;15.05;58.05
39487;BME280;25173;50.430;18.926;2023-03-21T14:27:30;98177.16;;;14.79;58.06
39487;BME280;25173;50.430;18.926;2023-03-21T14:30:35;98170.81;;;14.65;58.58
39487;BME280;25173;50.430;18.926;2023-03-21T14:33:41;98168.94;;;14.47;58.66
39487;BME280;25173;50.430;18.926;2023-03-21T14:36:43;98166.88;;;14.38;59.47
39487;BME280;25173;50.430;18.926;2023-03-21T14:39:55;98171.53;;;14.38;59.20
39487;BME280;25173;50.430;18.926;2023-03-21T14:42:56;98172.94;;;14.35;59.58
39487;BME280;25173;50.430;18.926;2023-03-21T14:45:57;98159.72;;;14.37;59.79
39487;BME280;25173;50.430;18.926;2023-03-21T14:49:09;98160.13;;;14.50;59.84
39487;BME280;25173;50.430;18.926;2023-03-21T14:52:14;98162.09;;;14.63;59.77
39487;BME280;25173;50.430;18.926;2023-03-21T14:55:15;98165.16;;;14.75;59.65
39487;BME280;25173;50.430;18.926;2023-03-21T14:58:16;98168.84;;;14.84;59.62
39487;BME280;25173;50.430;18.926;2023-03-21T15:01:28;98169.56;;;14.90;59.27
39487;BME280;25173;50.430;18.926;2023-03-21T15:04:31;98168.97;;;14.93;59.52
39487;BME280;25173;50.430;18.926;2023-03-21T15:07:33;98174.34;;;14.98;59.45
39487;BME280;25173;50.430;18.926;2023-03-21T15:10:35;98164.94;;;15.04;59.55
39487;BME280;25173;50.430;18.926;2023-03-21T15:13:48;98175.28;;;15.07;59.24
39487;BME280;25173;50.430;18.926;2023-03-21T15:16:52;98165.53;;;15.14;59.63
39487;BME280;25173;50.430;18.926;2023-03-21T15:19:53;98162.59;;;15.25;59.59
39487;BME280;25173;50.430;18.926;2023-03-21T15:22:57;98164.72;;;15.28;59.53
39487;BME280;25173;50.430;18.926;2023-03-21T15:26:02;98158.03;;;15.34;59.50
39487;BME280;25173;50.430;18.926;2023-03-21T15:29:05;98160.66;;;15.39;59.18
39487;BME280;25173;50.430;18.926;2023-03-21T15:32:12;98150.50;;;15.39;59.30
39487;BME280;25173;50.430;18.926;2023-03-21T15:35:24;98148.97;;;15.47;59.11
39487;BME280;25173;50.430;18.926;2023-03-21T15:38:41;98147.78;;;15.53;58.97
39487;BME280;25173;50.430;18.926;2023-03-21T15:42:26;98148.59;;;15.53;59.02
39487;BME280;25173;50.430;18.926;2023-03-21T15:45:27;98150.53;;;15.53;59.25
39487;BME280;25173;50.430;18.926;2023-03-21T15:48:32;98152.66;;;15.56;59.26
39487;BME280;25173;50.430;18.926;2023-03-21T15:51:33;98143.28;;;15.57;59.35
39487;BME280;25173;50.430;18.926;2023-03-21T15:57:44;98133.22;;;15.66;58.94
39487;BME280;25173;50.430;18.926;2023-03-21T16:00:56;98138.59;;;15.71;58.71
39487;BME280;25173;50.430;18.926;2023-03-21T16:04:09;98133.00;;;15.76;58.96
39487;BME280;25173;50.430;18.926;2023-03-21T16:07:13;98136.22;;;15.78;58.90
39487;BME280;25173;50.430;18.926;2023-03-21T16:10:33;98142.44;;;15.84;58.68
39487;BME280;25173;50.430;18.926;2023-03-21T16:13:35;98143.25;;;15.84;58.85
39487;BME280;25173;50.430;18.926;2023-03-21T16:16:36;98141.13;;;15.81;58.65
39487;BME280;25173;50.430;18.926;2023-03-21T16:19:37;98147.34;;;15.73;58.61
39487;BME280;25173;50.430;18.926;2023-03-21T16:22:37;98146.94;;;15.66;58.72
39487;BME280;25173;50.430;18.926;2023-03-21T16:25:38;98148.19;;;15.60;58.72
39487;BME280;25173;50.430;18.926;2023-03-21T16:28:39;98147.97;;;15.57;58.55
39487;BME280;25173;50.430;18.926;2023-03-21T16:31:40;98156.59;;;15.50;58.54
39487;BME280;25173;50.430;18.926;2023-03-21T16:34:41;98151.44;;;15.48;58.50
39487;BME280;25173;50.430;18.926;2023-03-21T16:37:42;98158.31;;;15.46;58.69
39487;BME280;25173;50.430;18.926;2023-03-21T16:40:43;98157.63;;;15.40;58.33
39487;BME280;25173;50.430;18.926;2023-03-21T16:43:43;98162.38;;;15.35;58.43
39487;BME280;25173;50.430;18.926;2023-03-21T16:46:44;98162.38;;;15.35;58.29
39487;BME280;25173;50.430;18.926;2023-03-21T16:49:46;98161.28;;;15.36;58.47
39487;BME280;25173;50.430;18.926;2023-03-21T16:52:48;98166.47;;;15.37;58.38
39487;BME280;25173;50.430;18.926;2023-03-21T16:55:49;98172.34;;;15.31;58.45
39487;BME280;25173;50.430;18.926;2023-03-21T16:58:50;98166.34;;;15.29;58.54
39487;BME280;25173;50.430;18.926;2023-03-21T17:01:52;98166.97;;;15.26;58.82
39487;BME280;25173;50.430;18.926;2023-03-21T17:04:53;98179.38;;;15.23;58.51
39487;BME280;25173;50.430;18.926;2023-03-21T17:07:54;98175.38;;;15.15;58.51
39487;BME280;25173;50.430;18.926;2023-03-21T17:10:54;98181.69;;;15.02;58.61
39487;BME280;25173;50.430;18.926;2023-03-21T17:13:55;98178.00;;;14.93;59.02
39487;BME280;25173;50.430;18.926;2023-03-21T17:16:55;98171.19;;;14.91;59.21
39487;BME280;25173;50.430;18.926;2023-03-21T17:19:56;98171.69;;;14.93;59.18